PWSweather.com
Personal Weather Stations
Station Observations
NIPERANCH
Fairview Farms, Krugerville, TX 76227

Fairview FarmsKrugerville, TX 76227

Lat: 33.269689, Lon: -96.99024299999996

Elevation: 661

Station Type: VantageVue

Latest ConditionsUpdated 4:52:07 PM CDT Monday, Oct 15, 2018
Currently Today's Max Today's Min Today's Average
Temperature 44.4°F6.9°C 48.6°F9.2°C 40.0°F4.4°C 42.8°F6.0°C
Dew Point 41.4°F5.2°C 46.7°F8.2°C 38.4°F3.6°C 41.1°F5.1°C
Winds 6.0 mph N9.7 kmh N 14.0 mph -22.5 kmh - - 6.5 mph 10.5 kmh
Wind Gusts 14.0 mph22.5 kmh 21.0 mph33.8 kmh - -
Humidity 89% 96% 88% 94%
Pressure 30.30 in1026.1 mb 30.34 in1027.4 mb 30.11 in1019.6 mb -
Precipitation - 1.73 in43.9 mm - -
Hour Temp Dew Point Humidity Winds Wind Gusts Pressure Precip Precip Rate Daily Precip Total
04:52 PM 44.4°F6.9°C 41.4°F5.2°C 89% 6.0 mph N9.7 kmh N 14.0 mph22.5 kmh 30.30 in1026.1 mb 0.00 in0.0 mm 0.00 in0.0 mm 1.73 in43.9 mm
04:47 PM 44.4°F6.9°C 41.4°F5.2°C 89% 3.0 mph NW4.8 kmh NW 14.0 mph22.5 kmh 30.31 in1026.4 mb 0.00 in0.0 mm 0.00 in0.0 mm 1.73 in43.9 mm
04:42 PM 44.4°F6.9°C 41.4°F5.2°C 89% 4.0 mph NNE6.4 kmh NNE 14.0 mph22.5 kmh 30.31 in1026.4 mb 0.00 in0.0 mm 0.00 in0.0 mm 1.73 in43.9 mm
04:37 PM 44.3°F6.8°C 41.3°F5.2°C 89% 4.0 mph NW6.4 kmh NW 13.0 mph20.9 kmh 30.30 in1026.1 mb 0.00 in0.0 mm 0.00 in0.0 mm 1.73 in43.9 mm
04:32 PM 44.3°F6.8°C 41.3°F5.2°C 89% 10.0 mph N16.1 kmh N 15.0 mph24.1 kmh 30.31 in1026.4 mb 0.00 in0.0 mm 0.00 in0.0 mm 1.73 in43.9 mm
04:27 PM 44.3°F6.8°C 41.3°F5.2°C 89% 3.0 mph NW4.8 kmh NW 15.0 mph24.1 kmh 30.31 in1026.4 mb 0.00 in0.0 mm 0.00 in0.0 mm 1.73 in43.9 mm
04:22 PM 44.3°F6.8°C 41.3°F5.2°C 89% 3.0 mph N4.8 kmh N 15.0 mph24.1 kmh 30.31 in1026.4 mb 0.00 in0.0 mm 0.00 in0.0 mm 1.73 in43.9 mm
04:17 PM 44.2°F6.8°C 41.2°F5.1°C 89% 11.0 mph N17.7 kmh N 15.0 mph24.1 kmh 30.30 in1026.1 mb 0.00 in0.0 mm 0.00 in0.0 mm 1.73 in43.9 mm
04:12 PM 44.2°F6.8°C 41.2°F5.1°C 89% 9.0 mph WNW14.5 kmh WNW 14.0 mph22.5 kmh 30.33 in1027.1 mb 0.00 in0.0 mm 0.00 in0.0 mm 1.73 in43.9 mm
04:07 PM 44.1°F6.7°C 40.8°F4.9°C 88% 6.0 mph WNW9.7 kmh WNW 14.0 mph22.5 kmh 30.32 in1026.8 mb 0.00 in0.0 mm 0.00 in0.0 mm 1.73 in43.9 mm
04:02 PM 44.1°F6.7°C 41.1°F5.1°C 89% 6.0 mph W9.7 kmh W 13.0 mph20.9 kmh 30.32 in1026.8 mb 0.00 in0.0 mm 0.00 in0.0 mm 1.73 in43.9 mm
03:57 PM 44.1°F6.7°C 41.1°F5.1°C 89% 5.0 mph WNW8.0 kmh WNW 12.0 mph19.3 kmh 30.31 in1026.4 mb 0.00 in0.0 mm 0.00 in0.0 mm 1.73 in43.9 mm
03:52 PM 44.1°F6.7°C 41.4°F5.2°C 90% 7.0 mph WSW11.3 kmh WSW 12.0 mph19.3 kmh 30.31 in1026.4 mb 0.00 in0.0 mm 0.00 in0.0 mm 1.73 in43.9 mm
03:47 PM 44.0°F6.7°C 41.3°F5.2°C 90% 5.0 mph NW8.0 kmh NW 13.0 mph20.9 kmh 30.30 in1026.1 mb 0.00 in0.0 mm 0.00 in0.0 mm 1.73 in43.9 mm
03:42 PM 43.9°F6.6°C 41.4°F5.2°C 91% 3.0 mph NE4.8 kmh NE 13.0 mph20.9 kmh 30.30 in1026.1 mb 0.00 in0.0 mm 0.00 in0.0 mm 1.73 in43.9 mm
03:37 PM 43.9°F6.6°C 41.4°F5.2°C 91% 6.0 mph NNW9.7 kmh NNW 13.0 mph20.9 kmh 30.31 in1026.4 mb 0.00 in0.0 mm 0.00 in0.0 mm 1.73 in43.9 mm
03:32 PM 43.8°F6.6°C 41.3°F5.2°C 91% 7.0 mph NNW11.3 kmh NNW 13.0 mph20.9 kmh 30.31 in1026.4 mb 0.00 in0.0 mm 0.00 in0.0 mm 1.73 in43.9 mm
03:27 PM 43.9°F6.6°C 41.7°F5.4°C 92% 3.0 mph NW4.8 kmh NW 11.0 mph17.7 kmh 30.31 in1026.4 mb 0.00 in0.0 mm 0.00 in0.0 mm 1.73 in43.9 mm
03:22 PM 43.9°F6.6°C 41.7°F5.4°C 92% 6.0 mph W9.7 kmh W 11.0 mph17.7 kmh 30.32 in1026.8 mb 0.00 in0.0 mm 0.00 in0.0 mm 1.73 in43.9 mm
03:17 PM 43.8°F6.6°C 41.6°F5.3°C 92% 4.0 mph WNW6.4 kmh WNW 11.0 mph17.7 kmh 30.31 in1026.4 mb 0.00 in0.0 mm 0.00 in0.0 mm 1.73 in43.9 mm
03:12 PM 43.7°F6.5°C 41.5°F5.3°C 92% 5.0 mph NNW8.0 kmh NNW 12.0 mph19.3 kmh 30.29 in1025.7 mb 0.00 in0.0 mm 0.00 in0.0 mm 1.73 in43.9 mm
03:07 PM 43.5°F6.4°C 41.3°F5.2°C 92% 4.0 mph WNW6.4 kmh WNW 12.0 mph19.3 kmh 30.31 in1026.4 mb 0.00 in0.0 mm 0.00 in0.0 mm 1.73 in43.9 mm
03:02 PM 43.4°F6.3°C 41.0°F5.0°C 91% 5.0 mph NW8.0 kmh NW 12.0 mph19.3 kmh 30.31 in1026.4 mb 0.00 in0.0 mm 0.00 in0.0 mm 1.73 in43.9 mm
02:57 PM 43.3°F6.3°C 41.1°F5.1°C 92% 6.0 mph NNW9.7 kmh NNW 12.0 mph19.3 kmh 30.31 in1026.4 mb 0.00 in0.0 mm 0.00 in0.0 mm 1.73 in43.9 mm
02:52 PM 43.4°F6.3°C 41.2°F5.1°C 92% 7.0 mph NNE11.3 kmh NNE 14.0 mph22.5 kmh 30.30 in1026.1 mb 0.00 in0.0 mm 0.00 in0.0 mm 1.73 in43.9 mm
02:47 PM 43.4°F6.3°C 41.5°F5.3°C 93% 3.0 mph N4.8 kmh N 14.0 mph22.5 kmh 30.31 in1026.4 mb 0.00 in0.0 mm 0.00 in0.0 mm 1.73 in43.9 mm
02:42 PM 43.3°F6.3°C 41.4°F5.2°C 93% 3.0 mph NNE4.8 kmh NNE 14.0 mph22.5 kmh 30.31 in1026.4 mb 0.00 in0.0 mm 0.00 in0.0 mm 1.73 in43.9 mm
02:37 PM 43.2°F6.2°C 41.3°F5.2°C 93% 4.0 mph NW6.4 kmh NW 14.0 mph22.5 kmh 30.31 in1026.4 mb 0.00 in0.0 mm 0.00 in0.0 mm 1.73 in43.9 mm
02:32 PM 43.2°F6.2°C 41.3°F5.2°C 93% 8.0 mph NNW12.9 kmh NNW 12.0 mph19.3 kmh 30.31 in1026.4 mb 0.00 in0.0 mm 0.00 in0.0 mm 1.73 in43.9 mm
02:27 PM 43.2°F6.2°C 41.3°F5.2°C 93% 5.0 mph NNE8.0 kmh NNE 11.0 mph17.7 kmh 30.31 in1026.4 mb 0.00 in0.0 mm 0.00 in0.0 mm 1.73 in43.9 mm
02:22 PM 43.1°F6.2°C 41.2°F5.1°C 93% 4.0 mph NE6.4 kmh NE 11.0 mph17.7 kmh 30.31 in1026.4 mb 0.00 in0.0 mm 0.00 in0.0 mm 1.72 in43.7 mm
02:17 PM 43.0°F6.1°C 40.8°F4.9°C 92% 4.0 mph NE6.4 kmh NE 15.0 mph24.1 kmh 30.31 in1026.4 mb 0.00 in0.0 mm 0.00 in0.0 mm 1.72 in43.7 mm
02:12 PM 43.0°F6.1°C 41.1°F5.1°C 93% 4.0 mph NW6.4 kmh NW 15.0 mph24.1 kmh 30.32 in1026.8 mb 0.00 in0.0 mm 0.00 in0.0 mm 1.72 in43.7 mm
02:07 PM 42.7°F5.9°C 40.5°F4.7°C 92% 3.0 mph E4.8 kmh E 15.0 mph24.1 kmh 30.32 in1026.8 mb 0.00 in0.0 mm 0.00 in0.0 mm 1.72 in43.7 mm
02:02 PM 42.5°F5.8°C 40.6°F4.8°C 93% 6.0 mph NE9.7 kmh NE 15.0 mph24.1 kmh 30.31 in1026.4 mb 0.00 in0.0 mm 0.00 in0.0 mm 1.72 in43.7 mm
01:57 PM 42.5°F5.8°C 40.9°F4.9°C 94% 5.0 mph NNW8.0 kmh NNW 12.0 mph19.3 kmh 30.32 in1026.8 mb 0.00 in0.0 mm 0.00 in0.0 mm 1.72 in43.7 mm
01:52 PM 42.4°F5.8°C 40.8°F4.9°C 94% 5.0 mph NNW8.0 kmh NNW 12.0 mph19.3 kmh 30.33 in1027.1 mb 0.00 in0.0 mm 0.00 in0.0 mm 1.72 in43.7 mm
01:47 PM 42.2°F5.7°C 40.6°F4.8°C 94% 4.0 mph NNW6.4 kmh NNW 11.0 mph17.7 kmh 30.33 in1027.1 mb 0.00 in0.0 mm 0.00 in0.0 mm 1.72 in43.7 mm
01:42 PM 42.2°F5.7°C 40.9°F4.9°C 95% 5.0 mph NNW8.0 kmh NNW 18.0 mph29.0 kmh 30.34 in1027.4 mb 0.00 in0.0 mm 0.00 in0.0 mm 1.72 in43.7 mm
01:37 PM 42.2°F5.7°C 40.9°F4.9°C 95% 4.0 mph N6.4 kmh N 18.0 mph29.0 kmh 30.34 in1027.4 mb 0.00 in0.0 mm 0.00 in0.0 mm 1.72 in43.7 mm
01:32 PM 42.1°F5.6°C 40.8°F4.9°C 95% 8.0 mph WSW12.9 kmh WSW 18.0 mph29.0 kmh 30.33 in1027.1 mb 0.00 in0.0 mm 0.00 in0.0 mm 1.72 in43.7 mm
01:27 PM 42.0°F5.6°C 40.9°F4.9°C 96% 6.0 mph WSW9.7 kmh WSW 18.0 mph29.0 kmh 30.33 in1027.1 mb 0.00 in0.0 mm 0.00 in0.0 mm 1.72 in43.7 mm
01:22 PM 41.9°F5.5°C 40.8°F4.9°C 96% 4.0 mph S6.4 kmh S 13.0 mph20.9 kmh 30.33 in1027.1 mb 0.00 in0.0 mm 0.00 in0.0 mm 1.72 in43.7 mm
01:17 PM 41.8°F5.4°C 40.7°F4.8°C 96% 4.0 mph NE6.4 kmh NE 13.0 mph20.9 kmh 30.33 in1027.1 mb 0.00 in0.0 mm 0.00 in0.0 mm 1.72 in43.7 mm
01:12 PM 41.8°F5.4°C 40.7°F4.8°C 96% 6.0 mph NW9.7 kmh NW 13.0 mph20.9 kmh 30.33 in1027.1 mb 0.00 in0.0 mm 0.00 in0.0 mm 1.72 in43.7 mm
01:07 PM 41.6°F5.3°C 40.5°F4.7°C 96% 4.0 mph WNW6.4 kmh WNW 13.0 mph20.9 kmh 30.33 in1027.1 mb 0.00 in0.0 mm 0.00 in0.0 mm 1.71 in43.4 mm
01:02 PM 41.5°F5.3°C 40.4°F4.7°C 96% 6.0 mph NW9.7 kmh NW 13.0 mph20.9 kmh 30.32 in1026.8 mb 0.00 in0.0 mm 0.00 in0.0 mm 1.71 in43.4 mm
12:57 PM 41.3°F5.2°C 40.2°F4.6°C 96% 4.0 mph N6.4 kmh N 13.0 mph20.9 kmh 30.32 in1026.8 mb 0.00 in0.0 mm 0.00 in0.0 mm 1.71 in43.4 mm
12:52 PM 41.2°F5.1°C 40.1°F4.5°C 96% 8.0 mph N12.9 kmh N 13.0 mph20.9 kmh 30.32 in1026.8 mb 0.00 in0.0 mm 0.00 in0.0 mm 1.71 in43.4 mm
12:47 PM 41.1°F5.1°C 40.0°F4.4°C 96% 5.0 mph N8.0 kmh N 13.0 mph20.9 kmh 30.32 in1026.8 mb 0.00 in0.0 mm 0.00 in0.0 mm 1.71 in43.4 mm
12:42 PM 41.0°F5.0°C 39.9°F4.4°C 96% 6.0 mph N9.7 kmh N 16.0 mph25.7 kmh 30.32 in1026.8 mb 0.00 in0.0 mm 0.00 in0.0 mm 1.71 in43.4 mm
12:37 PM 41.0°F5.0°C 39.9°F4.4°C 96% 8.0 mph N12.9 kmh N 16.0 mph25.7 kmh 30.32 in1026.8 mb 0.04 in1.0 mm 0.00 in0.0 mm 1.70 in43.2 mm
12:32 PM 40.9°F4.9°C 39.8°F4.3°C 96% 8.0 mph NNW12.9 kmh NNW 16.0 mph25.7 kmh 30.32 in1026.8 mb 0.07 in1.8 mm 0.00 in0.0 mm 1.70 in43.2 mm
12:27 PM 41.1°F5.1°C 40.0°F4.4°C 96% 11.0 mph N17.7 kmh N 16.0 mph25.7 kmh 30.32 in1026.8 mb 0.09 in2.3 mm 0.00 in0.0 mm 1.70 in43.2 mm
12:22 PM 41.0°F5.0°C 39.9°F4.4°C 96% 7.0 mph N11.3 kmh N 13.0 mph20.9 kmh 30.32 in1026.8 mb 0.11 in2.8 mm 0.00 in0.0 mm 1.69 in42.9 mm
12:17 PM 41.0°F5.0°C 39.9°F4.4°C 96% 5.0 mph NNE8.0 kmh NNE 13.0 mph20.9 kmh 30.32 in1026.8 mb 0.14 in3.6 mm 0.00 in0.0 mm 1.68 in42.7 mm
12:12 PM 40.9°F4.9°C 39.8°F4.3°C 96% 5.0 mph NW8.0 kmh NW 14.0 mph22.5 kmh 30.33 in1027.1 mb 0.23 in5.8 mm 0.36 in9.1 mm 1.67 in42.4 mm
12:07 PM 40.9°F4.9°C 39.8°F4.3°C 96% 2.0 mph NNE3.2 kmh NNE 14.0 mph22.5 kmh 30.33 in1027.1 mb 0.20 in5.1 mm 0.00 in0.0 mm 1.65 in41.9 mm
12:02 PM 40.7°F4.8°C 39.6°F4.2°C 96% 6.0 mph W9.7 kmh W 14.0 mph22.5 kmh 30.34 in1027.4 mb 0.30 in7.6 mm 0.00 in0.0 mm 1.63 in41.4 mm
11:57 AM 40.7°F4.8°C 39.6°F4.2°C 96% 9.0 mph N14.5 kmh N 14.0 mph22.5 kmh 30.33 in1027.1 mb 0.34 in8.6 mm 0.00 in0.0 mm 1.61 in40.9 mm
11:52 AM 40.7°F4.8°C 39.6°F4.2°C 96% 8.0 mph NNW12.9 kmh NNW 12.0 mph19.3 kmh 30.33 in1027.1 mb 0.36 in9.1 mm 0.12 in3.0 mm 1.58 in40.1 mm
11:47 AM 40.7°F4.8°C 39.6°F4.2°C 96% 4.0 mph N6.4 kmh N 12.0 mph19.3 kmh 30.33 in1027.1 mb 0.35 in8.9 mm 1.68 in42.7 mm 1.55 in39.4 mm
11:42 AM 40.6°F4.8°C 39.5°F4.2°C 96% 3.0 mph W4.8 kmh W 16.0 mph25.7 kmh 30.33 in1027.1 mb 0.21 in5.3 mm 0.96 in24.4 mm 1.52 in38.6 mm
11:37 AM 40.6°F4.8°C 39.5°F4.2°C 96% 6.0 mph NW9.7 kmh NW 16.0 mph25.7 kmh 30.33 in1027.1 mb 0.13 in3.3 mm 0.00 in0.0 mm 1.51 in38.4 mm
11:32 AM 40.4°F4.7°C 39.4°F4.1°C 96% 5.0 mph NW8.0 kmh NW 16.0 mph25.7 kmh 30.33 in1027.1 mb 0.15 in3.8 mm 0.60 in15.2 mm 1.49 in37.8 mm
11:27 AM 40.3°F4.6°C 39.3°F4.1°C 96% 8.0 mph NW12.9 kmh NW 16.0 mph25.7 kmh 30.33 in1027.1 mb 0.10 in2.5 mm 0.00 in0.0 mm 1.48 in37.6 mm
11:22 AM 40.3°F4.6°C 39.3°F4.1°C 96% 7.0 mph ENE11.3 kmh ENE 16.0 mph25.7 kmh 30.33 in1027.1 mb 0.14 in3.6 mm 0.00 in0.0 mm 1.48 in37.6 mm
11:17 AM 40.2°F4.6°C 38.9°F3.8°C 95% 6.0 mph NE9.7 kmh NE 16.0 mph25.7 kmh 30.33 in1027.1 mb 0.15 in3.8 mm 0.36 in9.1 mm 1.46 in37.1 mm
11:12 AM 40.1°F4.5°C 38.8°F3.8°C 95% 9.0 mph NE14.5 kmh NE 12.0 mph19.3 kmh 30.33 in1027.1 mb 0.12 in3.0 mm 0.00 in0.0 mm 1.45 in36.8 mm
11:07 AM 40.0°F4.4°C 38.7°F3.7°C 95% 6.0 mph NW9.7 kmh NW 11.0 mph17.7 kmh 30.32 in1026.8 mb 0.19 in4.8 mm 0.00 in0.0 mm 1.44 in36.6 mm
11:02 AM 40.0°F4.4°C 38.7°F3.7°C 95% 8.0 mph NNE12.9 kmh NNE 13.0 mph20.9 kmh 30.33 in1027.1 mb 0.39 in9.9 mm 0.00 in0.0 mm 1.43 in36.3 mm
10:57 AM 40.0°F4.4°C 38.7°F3.7°C 95% 7.0 mph WNW11.3 kmh WNW 13.0 mph20.9 kmh 30.32 in1026.8 mb 0.57 in14.5 mm 0.00 in0.0 mm 1.39 in35.3 mm
10:52 AM 40.1°F4.5°C 38.8°F3.8°C 95% 8.0 mph NW12.9 kmh NW 20.0 mph32.2 kmh 30.31 in1026.4 mb 0.71 in18.0 mm 1.32 in33.5 mm 1.34 in34.0 mm
10:47 AM 40.1°F4.5°C 38.5°F3.6°C 94% 5.0 mph N8.0 kmh N 20.0 mph32.2 kmh 30.30 in1026.1 mb 0.60 in15.2 mm 4.44 in112.8 mm 1.28 in32.5 mm
10:42 AM 40.2°F4.6°C 38.6°F3.7°C 94% 10.0 mph WSW16.1 kmh WSW 20.0 mph32.2 kmh 30.30 in1026.1 mb 0.23 in5.8 mm 0.00 in0.0 mm 1.25 in31.8 mm
10:37 AM 40.2°F4.6°C 38.6°F3.7°C 94% 9.0 mph NNE14.5 kmh NNE 20.0 mph32.2 kmh 30.30 in1026.1 mb 0.25 in6.4 mm 1.44 in36.6 mm 1.23 in31.2 mm
10:32 AM 40.2°F4.6°C 38.6°F3.7°C 94% 7.0 mph N11.3 kmh N 18.0 mph29.0 kmh 30.31 in1026.4 mb 0.13 in3.3 mm 0.60 in15.2 mm 1.21 in30.7 mm
10:27 AM 40.2°F4.6°C 38.6°F3.7°C 94% 7.0 mph N11.3 kmh N 18.0 mph29.0 kmh 30.30 in1026.1 mb 0.08 in2.0 mm 0.12 in3.0 mm 1.20 in30.5 mm
10:22 AM 40.3°F4.6°C 38.7°F3.7°C 94% 4.0 mph NE6.4 kmh NE 18.0 mph29.0 kmh 30.31 in1026.4 mb 0.07 in1.8 mm 0.00 in0.0 mm 1.19 in30.2 mm
10:17 AM 40.4°F4.7°C 38.8°F3.8°C 94% 14.0 mph N22.5 kmh N 16.0 mph25.7 kmh 30.31 in1026.4 mb 0.07 in1.8 mm 0.00 in0.0 mm 1.18 in30.0 mm
10:12 AM 40.3°F4.6°C 38.7°F3.7°C 94% 5.0 mph NW8.0 kmh NW 16.0 mph25.7 kmh 30.32 in1026.8 mb 0.14 in3.6 mm 0.00 in0.0 mm 1.18 in30.0 mm
10:07 AM 40.3°F4.6°C 38.4°F3.6°C 93% 10.0 mph NW16.1 kmh NW 16.0 mph25.7 kmh 30.32 in1026.8 mb 0.20 in5.1 mm 0.00 in0.0 mm 1.17 in29.7 mm
10:02 AM 40.5°F4.7°C 38.6°F3.7°C 93% 5.0 mph SW8.0 kmh SW 18.0 mph29.0 kmh 30.32 in1026.8 mb 0.20 in5.1 mm 0.00 in0.0 mm 1.16 in29.5 mm
09:57 AM 40.6°F4.8°C 38.7°F3.7°C 93% 5.0 mph NNW8.0 kmh NNW 18.0 mph29.0 kmh 30.32 in1026.8 mb 0.43 in10.9 mm 0.00 in0.0 mm 1.13 in28.7 mm
09:52 AM 40.9°F4.9°C 38.8°F3.8°C 92% 3.0 mph NE4.8 kmh NE 18.0 mph29.0 kmh 30.31 in1026.4 mb 0.55 in14.0 mm 6.60 in167.6 mm 1.09 in27.7 mm
09:47 AM 41.3°F5.2°C 39.2°F4.0°C 92% 7.0 mph NE11.3 kmh NE 18.0 mph29.0 kmh 30.30 in1026.1 mb 0.00 in0.0 mm 0.00 in0.0 mm 1.06 in26.9 mm
09:42 AM 41.5°F5.3°C 39.4°F4.1°C 92% 7.0 mph NNE11.3 kmh NNE 14.0 mph22.5 kmh 30.31 in1026.4 mb 0.00 in0.0 mm 0.00 in0.0 mm 1.06 in26.9 mm
09:37 AM 41.6°F5.3°C 39.5°F4.2°C 92% 7.0 mph NE11.3 kmh NE 15.0 mph24.1 kmh 30.32 in1026.8 mb 0.00 in0.0 mm 0.00 in0.0 mm 1.05 in26.7 mm
09:32 AM 41.6°F5.3°C 39.5°F4.2°C 92% 8.0 mph NNE12.9 kmh NNE 15.0 mph24.1 kmh 30.33 in1027.1 mb 0.00 in0.0 mm 0.00 in0.0 mm 1.05 in26.7 mm
09:27 AM 41.5°F5.3°C 39.1°F3.9°C 91% 7.0 mph NW11.3 kmh NW 16.0 mph25.7 kmh 30.32 in1026.8 mb 0.00 in0.0 mm 0.00 in0.0 mm 1.05 in26.7 mm
09:22 AM 41.3°F5.2°C 38.9°F3.8°C 91% 10.0 mph NNW16.1 kmh NNW 16.0 mph25.7 kmh 30.30 in1026.1 mb 0.00 in0.0 mm 0.00 in0.0 mm 1.05 in26.7 mm
09:17 AM 41.3°F5.2°C 39.2°F4.0°C 92% 12.0 mph N19.3 kmh N 16.0 mph25.7 kmh 30.30 in1026.1 mb 0.00 in0.0 mm 0.00 in0.0 mm 1.05 in26.7 mm
09:12 AM 41.3°F5.2°C 39.4°F4.1°C 93% 6.0 mph WSW9.7 kmh WSW 16.0 mph25.7 kmh 30.29 in1025.7 mb 0.00 in0.0 mm 0.00 in0.0 mm 1.05 in26.7 mm
09:07 AM 41.2°F5.1°C 39.1°F3.9°C 92% 7.0 mph N11.3 kmh N 16.0 mph25.7 kmh 30.29 in1025.7 mb 0.00 in0.0 mm 0.00 in0.0 mm 1.05 in26.7 mm
09:02 AM 41.1°F5.1°C 39.2°F4.0°C 93% 8.0 mph N12.9 kmh N 16.0 mph25.7 kmh 30.30 in1026.1 mb 0.00 in0.0 mm 0.00 in0.0 mm 1.05 in26.7 mm
08:57 AM 41.1°F5.1°C 39.5°F4.2°C 94% 5.0 mph N8.0 kmh N 13.0 mph20.9 kmh 30.30 in1026.1 mb 0.00 in0.0 mm 0.00 in0.0 mm 1.05 in26.7 mm
08:52 AM 41.1°F5.1°C 39.5°F4.2°C 94% 2.0 mph NNW3.2 kmh NNW 13.0 mph20.9 kmh 30.30 in1026.1 mb 0.00 in0.0 mm 0.00 in0.0 mm 1.05 in26.7 mm
08:47 AM 41.0°F5.0°C 39.4°F4.1°C 94% 4.0 mph N6.4 kmh N 13.0 mph20.9 kmh 30.29 in1025.7 mb 0.00 in0.0 mm 0.00 in0.0 mm 1.05 in26.7 mm
08:42 AM 40.9°F4.9°C 39.3°F4.1°C 94% 3.0 mph N4.8 kmh N 17.0 mph27.4 kmh 30.28 in1025.4 mb 0.00 in0.0 mm 0.00 in0.0 mm 1.05 in26.7 mm
08:37 AM 40.8°F4.9°C 39.2°F4.0°C 94% 7.0 mph NW11.3 kmh NW 17.0 mph27.4 kmh 30.28 in1025.4 mb 0.00 in0.0 mm 0.00 in0.0 mm 1.05 in26.7 mm
08:32 AM 40.8°F4.9°C 39.2°F4.0°C 94% 6.0 mph N9.7 kmh N 17.0 mph27.4 kmh 30.28 in1025.4 mb 0.00 in0.0 mm 0.00 in0.0 mm 1.05 in26.7 mm
08:27 AM 40.9°F4.9°C 39.6°F4.2°C 95% 11.0 mph W17.7 kmh W 17.0 mph27.4 kmh 30.28 in1025.4 mb 0.00 in0.0 mm 0.00 in0.0 mm 1.05 in26.7 mm
08:22 AM 40.9°F4.9°C 39.6°F4.2°C 95% 7.0 mph NNW11.3 kmh NNW 19.0 mph30.6 kmh 30.27 in1025.1 mb 0.00 in0.0 mm 0.00 in0.0 mm 1.05 in26.7 mm
08:17 AM 40.9°F4.9°C 39.6°F4.2°C 95% 5.0 mph NW8.0 kmh NW 19.0 mph30.6 kmh 30.27 in1025.1 mb 0.04 in1.0 mm 0.00 in0.0 mm 1.05 in26.7 mm
08:12 AM 41.0°F5.0°C 39.7°F4.3°C 95% 12.0 mph NNW19.3 kmh NNW 19.0 mph30.6 kmh 30.26 in1024.7 mb 0.05 in1.3 mm 0.00 in0.0 mm 1.05 in26.7 mm
08:07 AM 41.1°F5.1°C 40.0°F4.4°C 96% 13.0 mph NNE20.9 kmh NNE 19.0 mph30.6 kmh 30.26 in1024.7 mb 0.09 in2.3 mm 0.00 in0.0 mm 1.05 in26.7 mm
08:02 AM 41.1°F5.1°C 40.0°F4.4°C 96% 8.0 mph NNW12.9 kmh NNW 15.0 mph24.1 kmh 30.26 in1024.7 mb 0.09 in2.3 mm 0.02 in0.5 mm 1.05 in26.7 mm
07:57 AM 41.0°F5.0°C 39.7°F4.3°C 95% 7.0 mph N11.3 kmh N 15.0 mph24.1 kmh 30.25 in1024.4 mb 0.07 in1.8 mm 0.12 in3.0 mm 1.04 in26.4 mm
07:52 AM 41.1°F5.1°C 39.8°F4.3°C 95% 12.0 mph WSW19.3 kmh WSW 15.0 mph24.1 kmh 30.25 in1024.4 mb 0.06 in1.5 mm 0.00 in0.0 mm 1.03 in26.2 mm
07:47 AM 41.1°F5.1°C 40.0°F4.4°C 96% 7.0 mph W11.3 kmh W 15.0 mph24.1 kmh 30.25 in1024.4 mb 0.06 in1.5 mm 0.00 in0.0 mm 1.03 in26.2 mm
07:42 AM 41.2°F5.1°C 40.1°F4.5°C 96% 5.0 mph NW8.0 kmh NW 14.0 mph22.5 kmh 30.26 in1024.7 mb 0.09 in2.3 mm 0.00 in0.0 mm 1.02 in25.9 mm
07:37 AM 41.2°F5.1°C 40.1°F4.5°C 96% 6.0 mph NNE9.7 kmh NNE 14.0 mph22.5 kmh 30.25 in1024.4 mb 0.11 in2.8 mm 0.00 in0.0 mm 1.02 in25.9 mm
07:32 AM 41.3°F5.2°C 40.2°F4.6°C 96% 9.0 mph N14.5 kmh N 14.0 mph22.5 kmh 30.25 in1024.4 mb 0.13 in3.3 mm 0.00 in0.0 mm 1.01 in25.7 mm
07:27 AM 41.2°F5.1°C 39.9°F4.4°C 95% 3.0 mph NE4.8 kmh NE 11.0 mph17.7 kmh 30.25 in1024.4 mb 0.17 in4.3 mm 0.00 in0.0 mm 1.00 in25.4 mm
07:22 AM 41.3°F5.2°C 40.0°F4.4°C 95% 3.0 mph NW4.8 kmh NW 11.0 mph17.7 kmh 30.25 in1024.4 mb 0.22 in5.6 mm 0.00 in0.0 mm 0.98 in24.9 mm
07:17 AM 41.4°F5.2°C 40.1°F4.5°C 95% 4.0 mph NW6.4 kmh NW 12.0 mph19.3 kmh 30.26 in1024.7 mb 0.28 in7.1 mm 0.00 in0.0 mm 0.97 in24.6 mm
07:12 AM 41.5°F5.3°C 40.2°F4.6°C 95% 5.0 mph NNW8.0 kmh NNW 12.0 mph19.3 kmh 30.25 in1024.4 mb 0.37 in9.4 mm 0.00 in0.0 mm 0.94 in23.9 mm
07:07 AM 41.5°F5.3°C 40.2°F4.6°C 95% 10.0 mph N16.1 kmh N 12.0 mph19.3 kmh 30.25 in1024.4 mb 0.46 in11.7 mm 3.96 in100.6 mm 0.91 in23.1 mm
07:02 AM 41.6°F5.3°C 40.3°F4.6°C 95% 7.0 mph WNW11.3 kmh WNW 12.0 mph19.3 kmh 30.25 in1024.4 mb 0.13 in3.3 mm 0.07 in1.8 mm 0.88 in22.4 mm
06:57 AM 41.6°F5.3°C 40.3°F4.6°C 95% 4.0 mph NW6.4 kmh NW 15.0 mph24.1 kmh 30.26 in1024.7 mb 0.07 in1.8 mm 0.00 in0.0 mm 0.87 in22.1 mm
06:52 AM 41.5°F5.3°C 40.2°F4.6°C 95% 5.0 mph NW8.0 kmh NW 15.0 mph24.1 kmh 30.25 in1024.4 mb 0.12 in3.0 mm 0.00 in0.0 mm 0.86 in21.8 mm
06:47 AM 41.5°F5.3°C 40.2°F4.6°C 95% 6.0 mph N9.7 kmh N 16.0 mph25.7 kmh 30.25 in1024.4 mb 0.15 in3.8 mm 0.00 in0.0 mm 0.85 in21.6 mm
06:42 AM 41.4°F5.2°C 40.1°F4.5°C 95% 10.0 mph NNE16.1 kmh NNE 16.0 mph25.7 kmh 30.24 in1024.0 mb 0.22 in5.6 mm 1.44 in36.6 mm 0.84 in21.3 mm
06:37 AM 41.4°F5.2°C 40.1°F4.5°C 95% 6.0 mph NNW9.7 kmh NNW 16.0 mph25.7 kmh 30.23 in1023.7 mb 0.10 in2.5 mm 0.00 in0.0 mm 0.82 in20.8 mm
06:32 AM 41.4°F5.2°C 40.1°F4.5°C 95% 8.0 mph N12.9 kmh N 16.0 mph25.7 kmh 30.23 in1023.7 mb 0.10 in2.5 mm 0.00 in0.0 mm 0.81 in20.6 mm
06:27 AM 41.4°F5.2°C 40.1°F4.5°C 95% 5.0 mph NNE8.0 kmh NNE 15.0 mph24.1 kmh 30.24 in1024.0 mb 0.19 in4.8 mm 0.00 in0.0 mm 0.81 in20.6 mm
06:22 AM 41.5°F5.3°C 40.2°F4.6°C 95% 2.0 mph N3.2 kmh N 15.0 mph24.1 kmh 30.24 in1024.0 mb 0.58 in14.7 mm 0.12 in3.0 mm 0.79 in20.1 mm
06:17 AM 41.5°F5.3°C 39.9°F4.4°C 94% 3.0 mph NNW4.8 kmh NNW 15.0 mph24.1 kmh 30.23 in1023.7 mb 0.57 in14.5 mm 5.76 in146.3 mm 0.73 in18.5 mm
06:12 AM 41.5°F5.3°C 39.9°F4.4°C 94% 10.0 mph NNW16.1 kmh NNW 19.0 mph30.6 kmh 30.22 in1023.4 mb 0.09 in2.3 mm 0.00 in0.0 mm 0.69 in17.5 mm
06:07 AM 41.4°F5.2°C 39.8°F4.3°C 94% 7.0 mph NNW11.3 kmh NNW 19.0 mph30.6 kmh 30.23 in1023.7 mb 0.12 in3.0 mm 0.96 in24.4 mm 0.68 in17.3 mm
06:02 AM 41.3°F5.2°C 39.7°F4.3°C 94% 4.0 mph NE6.4 kmh NE 19.0 mph30.6 kmh 30.23 in1023.7 mb 0.04 in1.0 mm 0.00 in0.0 mm 0.67 in17.0 mm
05:57 AM 41.3°F5.2°C 39.7°F4.3°C 94% 12.0 mph E19.3 kmh E 19.0 mph30.6 kmh 30.21 in1023.0 mb 0.04 in1.0 mm 0.00 in0.0 mm 0.66 in16.8 mm
05:52 AM 41.3°F5.2°C 39.7°F4.3°C 94% 14.0 mph N22.5 kmh N 15.0 mph24.1 kmh 30.21 in1023.0 mb 0.06 in1.5 mm 0.00 in0.0 mm 0.66 in16.8 mm
05:47 AM 41.2°F5.1°C 39.6°F4.2°C 94% 6.0 mph WSW9.7 kmh WSW 15.0 mph24.1 kmh 30.21 in1023.0 mb 0.13 in3.3 mm 0.00 in0.0 mm 0.66 in16.8 mm
05:42 AM 41.3°F5.2°C 39.7°F4.3°C 94% 7.0 mph NNW11.3 kmh NNW 15.0 mph24.1 kmh 30.21 in1023.0 mb 0.18 in4.6 mm 0.00 in0.0 mm 0.65 in16.5 mm
05:37 AM 41.4°F5.2°C 40.1°F4.5°C 95% 5.0 mph WSW8.0 kmh WSW 14.0 mph22.5 kmh 30.20 in1022.7 mb 0.36 in9.1 mm 1.80 in45.7 mm 0.63 in16.0 mm
05:32 AM 41.5°F5.3°C 39.9°F4.4°C 94% 6.0 mph NW9.7 kmh NW 14.0 mph22.5 kmh 30.20 in1022.7 mb 0.21 in5.3 mm 0.00 in0.0 mm 0.61 in15.5 mm
05:27 AM 41.6°F5.3°C 40.0°F4.4°C 94% 5.0 mph WSW8.0 kmh WSW 11.0 mph17.7 kmh 30.22 in1023.4 mb 0.21 in5.3 mm 0.00 in0.0 mm 0.59 in15.0 mm
05:22 AM 41.6°F5.3°C 40.0°F4.4°C 94% 5.0 mph W8.0 kmh W 11.0 mph17.7 kmh 30.21 in1023.0 mb 0.41 in10.4 mm 2.64 in67.1 mm 0.57 in14.5 mm
05:17 AM 41.7°F5.4°C 40.1°F4.5°C 94% 4.0 mph N6.4 kmh N 15.0 mph24.1 kmh 30.21 in1023.0 mb 0.19 in4.8 mm 2.28 in57.9 mm 0.54 in13.7 mm
05:12 AM 41.7°F5.4°C 40.1°F4.5°C 94% 10.0 mph NW16.1 kmh NW 15.0 mph24.1 kmh 30.20 in1022.7 mb 0.00 in0.0 mm 0.00 in0.0 mm 0.52 in13.2 mm
05:07 AM 41.9°F5.5°C 40.3°F4.6°C 94% 3.0 mph NW4.8 kmh NW 15.0 mph24.1 kmh 30.19 in1022.4 mb 0.00 in0.0 mm 0.00 in0.0 mm 0.52 in13.2 mm
05:02 AM 42.0°F5.6°C 40.4°F4.7°C 94% 7.0 mph NNE11.3 kmh NNE 15.0 mph24.1 kmh 30.18 in1022.0 mb 0.00 in0.0 mm 0.00 in0.0 mm 0.52 in13.2 mm
04:57 AM 42.1°F5.6°C 40.5°F4.7°C 94% 5.0 mph NW8.0 kmh NW 14.0 mph22.5 kmh 30.18 in1022.0 mb 0.00 in0.0 mm 0.00 in0.0 mm 0.52 in13.2 mm
04:52 AM 42.2°F5.7°C 40.9°F4.9°C 95% 7.0 mph N11.3 kmh N 14.0 mph22.5 kmh 30.18 in1022.0 mb 0.00 in0.0 mm 0.00 in0.0 mm 0.51 in13.0 mm
04:47 AM 42.3°F5.7°C 41.0°F5.0°C 95% 9.0 mph N14.5 kmh N 14.0 mph22.5 kmh 30.18 in1022.0 mb 0.00 in0.0 mm 0.00 in0.0 mm 0.51 in13.0 mm
04:42 AM 42.3°F5.7°C 41.0°F5.0°C 95% 3.0 mph NW4.8 kmh NW 11.0 mph17.7 kmh 30.19 in1022.4 mb 0.00 in0.0 mm 0.00 in0.0 mm 0.51 in13.0 mm
04:37 AM 42.4°F5.8°C 41.1°F5.1°C 95% 6.0 mph WSW9.7 kmh WSW 11.0 mph17.7 kmh 30.19 in1022.4 mb 0.00 in0.0 mm 0.00 in0.0 mm 0.51 in13.0 mm
04:32 AM 42.5°F5.8°C 41.2°F5.1°C 95% 4.0 mph W6.4 kmh W 14.0 mph22.5 kmh 30.18 in1022.0 mb 0.00 in0.0 mm 0.00 in0.0 mm 0.51 in13.0 mm
04:27 AM 42.6°F5.9°C 41.5°F5.3°C 96% 4.0 mph N6.4 kmh N 14.0 mph22.5 kmh 30.20 in1022.7 mb 0.00 in0.0 mm 0.00 in0.0 mm 0.51 in13.0 mm
04:22 AM 42.6°F5.9°C 41.5°F5.3°C 96% 6.0 mph SW9.7 kmh SW 17.0 mph27.4 kmh 30.19 in1022.4 mb 0.00 in0.0 mm 0.00 in0.0 mm 0.51 in13.0 mm
04:17 AM 42.5°F5.8°C 41.4°F5.2°C 96% 3.0 mph N4.8 kmh N 17.0 mph27.4 kmh 30.19 in1022.4 mb 0.00 in0.0 mm 0.00 in0.0 mm 0.51 in13.0 mm
04:12 AM 42.4°F5.8°C 41.3°F5.2°C 96% 7.0 mph WNW11.3 kmh WNW 17.0 mph27.4 kmh 30.18 in1022.0 mb 0.04 in1.0 mm 0.00 in0.0 mm 0.51 in13.0 mm
04:07 AM 42.4°F5.8°C 41.1°F5.1°C 95% 7.0 mph N11.3 kmh N 17.0 mph27.4 kmh 30.16 in1021.3 mb 0.06 in1.5 mm 0.00 in0.0 mm 0.51 in13.0 mm
04:02 AM 42.4°F5.8°C 41.3°F5.2°C 96% 4.0 mph NW6.4 kmh NW 14.0 mph22.5 kmh 30.16 in1021.3 mb 0.12 in3.0 mm 0.00 in0.0 mm 0.51 in13.0 mm
03:57 AM 42.6°F5.9°C 41.5°F5.3°C 96% 4.0 mph SSW6.4 kmh SSW 19.0 mph30.6 kmh 30.17 in1021.7 mb 0.14 in3.6 mm 0.00 in0.0 mm 0.50 in12.7 mm
03:52 AM 42.6°F5.9°C 41.3°F5.2°C 95% 11.0 mph SW17.7 kmh SW 19.0 mph30.6 kmh 30.15 in1021.0 mb 0.21 in5.3 mm 0.00 in0.0 mm 0.49 in12.4 mm
03:47 AM 42.7°F5.9°C 41.4°F5.2°C 95% 7.0 mph NW11.3 kmh NW 19.0 mph30.6 kmh 30.14 in1020.7 mb 0.31 in7.9 mm 2.04 in51.8 mm 0.47 in11.9 mm
03:42 AM 42.8°F6.0°C 41.5°F5.3°C 95% 14.0 mph NNW22.5 kmh NNW 19.0 mph30.6 kmh 30.14 in1020.7 mb 0.14 in3.6 mm 1.08 in27.4 mm 0.45 in11.4 mm
03:37 AM 42.9°F6.1°C 41.6°F5.3°C 95% 4.0 mph NW6.4 kmh NW 14.0 mph22.5 kmh 30.17 in1021.7 mb 0.05 in1.3 mm 0.60 in15.2 mm 0.44 in11.2 mm
03:32 AM 43.1°F6.2°C 42.0°F5.6°C 96% 6.0 mph NW9.7 kmh NW 13.0 mph20.9 kmh 30.18 in1022.0 mb 0.00 in0.0 mm 0.00 in0.0 mm 0.43 in10.9 mm
03:27 AM 43.0°F6.1°C 41.7°F5.4°C 95% 5.0 mph WNW8.0 kmh WNW 16.0 mph25.7 kmh 30.18 in1022.0 mb 0.00 in0.0 mm 0.00 in0.0 mm 0.43 in10.9 mm
03:22 AM 43.2°F6.2°C 42.1°F5.6°C 96% 9.0 mph W14.5 kmh W 16.0 mph25.7 kmh 30.17 in1021.7 mb 0.00 in0.0 mm 0.00 in0.0 mm 0.42 in10.7 mm
03:17 AM 43.2°F6.2°C 41.9°F5.5°C 95% 5.0 mph W8.0 kmh W 19.0 mph30.6 kmh 30.16 in1021.3 mb 0.00 in0.0 mm 0.00 in0.0 mm 0.42 in10.7 mm
03:12 AM 43.3°F6.3°C 42.2°F5.7°C 96% 9.0 mph N14.5 kmh N 19.0 mph30.6 kmh 30.14 in1020.7 mb 0.00 in0.0 mm 0.00 in0.0 mm 0.42 in10.7 mm
03:07 AM 43.4°F6.3°C 42.3°F5.7°C 96% 10.0 mph NW16.1 kmh NW 19.0 mph30.6 kmh 30.15 in1021.0 mb 0.00 in0.0 mm 0.00 in0.0 mm 0.42 in10.7 mm
03:02 AM 43.5°F6.4°C 42.2°F5.7°C 95% 11.0 mph NW17.7 kmh NW 19.0 mph30.6 kmh 30.15 in1021.0 mb 0.00 in0.0 mm 0.00 in0.0 mm 0.41 in10.4 mm
02:57 AM 43.7°F6.5°C 42.4°F5.8°C 95% 7.0 mph NW11.3 kmh NW 13.0 mph20.9 kmh 30.16 in1021.3 mb 0.00 in0.0 mm 0.00 in0.0 mm 0.41 in10.4 mm
02:52 AM 43.8°F6.6°C 42.5°F5.8°C 95% 4.0 mph W6.4 kmh W 16.0 mph25.7 kmh 30.16 in1021.3 mb 0.04 in1.0 mm 0.00 in0.0 mm 0.41 in10.4 mm
02:47 AM 44.0°F6.7°C 42.7°F5.9°C 95% 4.0 mph NNW6.4 kmh NNW 16.0 mph25.7 kmh 30.16 in1021.3 mb 0.06 in1.5 mm 0.00 in0.0 mm 0.41 in10.4 mm
02:42 AM 44.3°F6.8°C 43.0°F6.1°C 95% 3.0 mph W4.8 kmh W 19.0 mph30.6 kmh 30.15 in1021.0 mb 0.11 in2.8 mm 0.00 in0.0 mm 0.41 in10.4 mm
02:37 AM 44.5°F6.9°C 43.2°F6.2°C 95% 8.0 mph NW12.9 kmh NW 19.0 mph30.6 kmh 30.16 in1021.3 mb 0.11 in2.8 mm 0.00 in0.0 mm 0.40 in10.2 mm
02:32 AM 44.8°F7.1°C 43.2°F6.2°C 94% 8.0 mph NW12.9 kmh NW 19.0 mph30.6 kmh 30.17 in1021.7 mb 0.13 in3.3 mm 0.00 in0.0 mm 0.40 in10.2 mm
02:27 AM 44.9°F7.2°C 43.3°F6.3°C 94% 9.0 mph NNW14.5 kmh NNW 19.0 mph30.6 kmh 30.16 in1021.3 mb 0.53 in13.5 mm 0.00 in0.0 mm 0.39 in9.9 mm
02:22 AM 45.4°F7.4°C 43.5°F6.4°C 93% 12.0 mph NW19.3 kmh NW 18.0 mph29.0 kmh 30.13 in1020.3 mb 1.43 in36.3 mm 17.16 in435.9 mm 0.29 in7.4 mm
02:17 AM 45.9°F7.7°C 44.0°F6.7°C 93% 8.0 mph NW12.9 kmh NW 15.0 mph24.1 kmh 30.20 in1022.7 mb 0.00 in0.0 mm 0.00 in0.0 mm 0.16 in4.1 mm
02:12 AM 45.9°F7.7°C 44.0°F6.7°C 93% 7.0 mph SW11.3 kmh SW 14.0 mph22.5 kmh 30.22 in1023.4 mb 0.00 in0.0 mm 0.00 in0.0 mm 0.16 in4.1 mm
02:07 AM 46.0°F7.8°C 44.1°F6.7°C 93% 10.0 mph WSW16.1 kmh WSW 14.0 mph22.5 kmh 30.16 in1021.3 mb 0.04 in1.0 mm 0.00 in0.0 mm 0.16 in4.1 mm
02:02 AM 46.2°F7.9°C 44.3°F6.8°C 93% 9.0 mph NW14.5 kmh NW 15.0 mph24.1 kmh 30.14 in1020.7 mb 0.07 in1.8 mm 0.00 in0.0 mm 0.16 in4.1 mm
01:57 AM 46.4°F8.0°C 44.5°F6.9°C 93% 9.0 mph N14.5 kmh N 15.0 mph24.1 kmh 30.13 in1020.3 mb 0.17 in4.3 mm 0.00 in0.0 mm 0.16 in4.1 mm
01:52 AM 46.6°F8.1°C 44.4°F6.9°C 92% 8.0 mph NW12.9 kmh NW 16.0 mph25.7 kmh 30.13 in1020.3 mb 0.29 in7.4 mm 0.00 in0.0 mm 0.15 in3.8 mm
01:47 AM 47.1°F8.4°C 44.9°F7.2°C 92% 4.0 mph NW6.4 kmh NW 16.0 mph25.7 kmh 30.13 in1020.3 mb 1.02 in25.9 mm 12.24 in310.9 mm 0.10 in2.5 mm
01:42 AM 47.4°F8.6°C 44.9°F7.2°C 91% 7.0 mph NNE11.3 kmh NNE 17.0 mph27.4 kmh 30.14 in1020.7 mb 0.00 in0.0 mm 0.00 in0.0 mm 0.00 in0.0 mm
01:37 AM 47.4°F8.6°C 44.6°F7.0°C 90% 6.0 mph NNW9.7 kmh NNW 17.0 mph27.4 kmh 30.14 in1020.7 mb 0.00 in0.0 mm 0.00 in0.0 mm 0.00 in0.0 mm
01:32 AM 47.4°F8.6°C 44.6°F7.0°C 90% 6.0 mph N9.7 kmh N 21.0 mph33.8 kmh 30.13 in1020.3 mb 0.00 in0.0 mm 0.00 in0.0 mm 0.00 in0.0 mm
01:27 AM 47.5°F8.6°C 44.4°F6.9°C 89% 10.0 mph NNW16.1 kmh NNW 21.0 mph33.8 kmh 30.12 in1020.0 mb 0.00 in0.0 mm 0.00 in0.0 mm 0.00 in0.0 mm
01:22 AM 47.7°F8.7°C 44.6°F7.0°C 89% 13.0 mph NW20.9 kmh NW 21.0 mph33.8 kmh 30.13 in1020.3 mb 0.00 in0.0 mm 0.00 in0.0 mm 0.00 in0.0 mm
01:17 AM 47.9°F8.8°C 44.8°F7.1°C 89% 9.0 mph NNW14.5 kmh NNW 21.0 mph33.8 kmh 30.13 in1020.3 mb 0.00 in0.0 mm 0.00 in0.0 mm 0.00 in0.0 mm
01:12 AM 48.2°F9.0°C 45.4°F7.4°C 90% 6.0 mph N9.7 kmh N 16.0 mph25.7 kmh 30.13 in1020.3 mb 0.00 in0.0 mm 0.00 in0.0 mm 0.00 in0.0 mm
01:07 AM 48.3°F9.1°C 45.2°F7.3°C 89% 5.0 mph N8.0 kmh N 16.0 mph25.7 kmh 30.14 in1020.7 mb 0.00 in0.0 mm 0.00 in0.0 mm 0.00 in0.0 mm
01:02 AM 48.3°F9.1°C 45.2°F7.3°C 89% 7.0 mph N11.3 kmh N 18.0 mph29.0 kmh 30.13 in1020.3 mb 0.00 in0.0 mm 0.00 in0.0 mm 0.00 in0.0 mm
12:57 AM 48.3°F9.1°C 45.2°F7.3°C 89% 5.0 mph NW8.0 kmh NW 18.0 mph29.0 kmh 30.13 in1020.3 mb 0.00 in0.0 mm 0.00 in0.0 mm 0.00 in0.0 mm
12:52 AM 48.3°F9.1°C 45.2°F7.3°C 89% 12.0 mph N19.3 kmh N 18.0 mph29.0 kmh 30.12 in1020.0 mb 0.00 in0.0 mm 0.00 in0.0 mm 0.00 in0.0 mm
12:47 AM 48.3°F9.1°C 45.2°F7.3°C 89% 6.0 mph NNW9.7 kmh NNW 18.0 mph29.0 kmh 30.12 in1020.0 mb 0.00 in0.0 mm 0.00 in0.0 mm 0.00 in0.0 mm
12:42 AM 48.4°F9.1°C 45.6°F7.6°C 90% 10.0 mph NNE16.1 kmh NNE 17.0 mph27.4 kmh 30.12 in1020.0 mb 0.00 in0.0 mm 0.00 in0.0 mm 0.00 in0.0 mm
12:37 AM 48.5°F9.2°C 46.0°F7.8°C 91% 3.0 mph E4.8 kmh E 16.0 mph25.7 kmh 30.12 in1020.0 mb 0.00 in0.0 mm 0.00 in0.0 mm 0.00 in0.0 mm
12:32 AM 48.5°F9.2°C 46.3°F7.9°C 92% 7.0 mph N11.3 kmh N 14.0 mph22.5 kmh 30.12 in1020.0 mb 0.00 in0.0 mm 0.00 in0.0 mm 0.00 in0.0 mm
12:27 AM 48.5°F9.2°C 46.3°F7.9°C 92% 7.0 mph N11.3 kmh N 14.0 mph22.5 kmh 30.12 in1020.0 mb 0.00 in0.0 mm 0.00 in0.0 mm 0.00 in0.0 mm
12:22 AM 48.5°F9.2°C 46.3°F7.9°C 92% 7.0 mph NW11.3 kmh NW 16.0 mph25.7 kmh 30.12 in1020.0 mb 0.00 in0.0 mm 0.00 in0.0 mm 0.00 in0.0 mm
12:17 AM 48.4°F9.1°C 46.5°F8.1°C 93% 5.0 mph W8.0 kmh W 16.0 mph25.7 kmh 30.12 in1020.0 mb 0.00 in0.0 mm 0.00 in0.0 mm 0.00 in0.0 mm
12:12 AM 48.3°F9.1°C 46.4°F8.0°C 93% 10.0 mph NNW16.1 kmh NNW 16.0 mph25.7 kmh 30.11 in1019.6 mb 0.00 in0.0 mm 0.00 in0.0 mm 0.00 in0.0 mm
12:07 AM 48.4°F9.1°C 46.5°F8.1°C 93% 14.0 mph N22.5 kmh N 16.0 mph25.7 kmh 30.11 in1019.6 mb 0.00 in0.0 mm 0.00 in0.0 mm 0.00 in0.0 mm
12:02 AM 48.6°F9.2°C 46.7°F8.2°C 93% 7.0 mph N11.3 kmh N 15.0 mph24.1 kmh 30.11 in1019.6 mb 0.00 in0.0 mm 0.00 in0.0 mm 0.00 in0.0 mm